sensor_id;sensor_type;location;lat;lon;timestamp;temperature;humidity
66568;DHT22;53422;49.296;6.900;2023-06-19T00:01:01;23.80;56.30
66568;DHT22;53422;49.296;6.900;2023-06-19T00:03:26;23.70;57.40
66568;DHT22;53422;49.296;6.900;2023-06-19T00:05:52;23.70;56.50
66568;DHT22;53422;49.296;6.900;2023-06-19T00:08:17;23.70;57.50
66568;DHT22;53422;49.296;6.900;2023-06-19T00:10:43;23.70;57.50
66568;DHT22;53422;49.296;6.900;2023-06-19T00:13:08;23.60;57.60
66568;DHT22;53422;49.296;6.900;2023-06-19T00:15:34;23.60;57.90
66568;DHT22;53422;49.296;6.900;2023-06-19T00:18:00;23.60;57.40
66568;DHT22;53422;49.296;6.900;2023-06-19T00:20:25;23.60;59.40
66568;DHT22;53422;49.296;6.900;2023-06-19T00:22:54;23.60;60.40
66568;DHT22;53422;49.296;6.900;2023-06-19T00:25:20;23.60;62.30
66568;DHT22;53422;49.296;6.900;2023-06-19T00:27:47;23.50;59.60
66568;DHT22;53422;49.296;6.900;2023-06-19T00:30:14;23.50;58.70
66568;DHT22;53422;49.296;6.900;2023-06-19T00:32:39;23.50;58.70
66568;DHT22;53422;49.296;6.900;2023-06-19T00:35:16;23.50;57.60
66568;DHT22;53422;49.296;6.900;2023-06-19T00:37:43;23.50;57.90
66568;DHT22;53422;49.296;6.900;2023-06-19T00:40:29;23.40;61.10
66568;DHT22;53422;49.296;6.900;2023-06-19T00:42:55;23.40;61.30
66568;DHT22;53422;49.296;6.900;2023-06-19T00:45:21;23.40;63.10
66568;DHT22;53422;49.296;6.900;2023-06-19T00:47:47;23.30;65.00
66568;DHT22;53422;49.296;6.900;2023-06-19T00:50:15;23.30;64.90
66568;DHT22;53422;49.296;6.900;2023-06-19T00:52:41;23.30;63.20
66568;DHT22;53422;49.296;6.900;2023-06-19T00:55:08;23.30;62.90
66568;DHT22;53422;49.296;6.900;2023-06-19T00:57:36;23.30;61.70
66568;DHT22;53422;49.296;6.900;2023-06-19T01:00:09;23.30;65.10
66568;DHT22;53422;49.296;6.900;2023-06-19T01:02:40;23.20;67.90
66568;DHT22;53422;49.296;6.900;2023-06-19T01:05:06;23.20;66.70
66568;DHT22;53422;49.296;6.900;2023-06-19T01:10:28;23.20;70.30
66568;DHT22;53422;49.296;6.900;2023-06-19T01:13:11;23.20;65.60
66568;DHT22;53422;49.296;6.900;2023-06-19T01:15:38;23.10;65.60
66568;DHT22;53422;49.296;6.900;2023-06-19T01:18:12;23.10;67.70
66568;DHT22;53422;49.296;6.900;2023-06-19T01:20:38;23.10;64.80
66568;DHT22;53422;49.296;6.900;2023-06-19T01:23:10;23.10;64.30
66568;DHT22;53422;49.296;6.900;2023-06-19T01:25:37;23.10;64.10
66568;DHT22;53422;49.296;6.900;2023-06-19T01:28:04;23.10;63.70
66568;DHT22;53422;49.296;6.900;2023-06-19T01:30:35;23.10;66.40
66568;DHT22;53422;49.296;6.900;2023-06-19T01:33:16;23.00;67.40
66568;DHT22;53422;49.296;6.900;2023-06-19T01:35:46;23.00;64.80
66568;DHT22;53422;49.296;6.900;2023-06-19T01:38:12;23.00;65.10
66568;DHT22;53422;49.296;6.900;2023-06-19T01:40:39;23.00;65.00
66568;DHT22;53422;49.296;6.900;2023-06-19T01:43:05;23.00;66.30
66568;DHT22;53422;49.296;6.900;2023-06-19T01:45:33;23.00;70.50
66568;DHT22;53422;49.296;6.900;2023-06-19T01:47:59;22.90;66.40
66568;DHT22;53422;49.296;6.900;2023-06-19T01:50:25;22.90;66.50
66568;DHT22;53422;49.296;6.900;2023-06-19T01:52:51;22.90;65.60
66568;DHT22;53422;49.296;6.900;2023-06-19T01:55:17;22.90;65.90
66568;DHT22;53422;49.296;6.900;2023-06-19T01:57:42;22.90;69.30
66568;DHT22;53422;49.296;6.900;2023-06-19T02:00:08;22.90;71.40
66568;DHT22;53422;49.296;6.900;2023-06-19T02:02:37;22.80;69.10
66568;DHT22;53422;49.296;6.900;2023-06-19T02:05:03;22.80;65.80
66568;DHT22;53422;49.296;6.900;2023-06-19T02:07:28;22.80;67.00
66568;DHT22;53422;49.296;6.900;2023-06-19T02:09:54;22.80;67.60
66568;DHT22;53422;49.296;6.900;2023-06-19T02:12:20;22.70;72.20
66568;DHT22;53422;49.296;6.900;2023-06-19T02:14:45;22.70;67.80
66568;DHT22;53422;49.296;6.900;2023-06-19T02:17:11;22.70;68.10
66568;DHT22;53422;49.296;6.900;2023-06-19T02:19:36;22.70;67.30
66568;DHT22;53422;49.296;6.900;2023-06-19T02:22:02;22.70;68.90
66568;DHT22;53422;49.296;6.900;2023-06-19T02:24:30;22.70;69.50
66568;DHT22;53422;49.296;6.900;2023-06-19T02:26:56;22.70;68.50
66568;DHT22;53422;49.296;6.900;2023-06-19T02:29:22;22.70;68.50
66568;DHT22;53422;49.296;6.900;2023-06-19T02:31:48;22.70;69.60
66568;DHT22;53422;49.296;6.900;2023-06-19T02:34:14;22.70;68.60
66568;DHT22;53422;49.296;6.900;2023-06-19T02:36:39;22.70;69.50
66568;DHT22;53422;49.296;6.900;2023-06-19T02:39:05;22.70;67.40
66568;DHT22;53422;49.296;6.900;2023-06-19T02:41:32;22.70;67.20
66568;DHT22;53422;49.296;6.900;2023-06-19T02:43:57;22.70;67.60
66568;DHT22;53422;49.296;6.900;2023-06-19T02:46:23;22.70;67.90
66568;DHT22;53422;49.296;6.900;2023-06-19T02:48:49;22.70;68.50
66568;DHT22;53422;49.296;6.900;2023-06-19T02:51:14;22.70;67.30
66568;DHT22;53422;49.296;6.900;2023-06-19T02:53:40;22.70;68.40
66568;DHT22;53422;49.296;6.900;2023-06-19T02:56:07;22.70;68.30
66568;DHT22;53422;49.296;6.900;2023-06-19T02:58:33;22.60;67.70
66568;DHT22;53422;49.296;6.900;2023-06-19T03:01:00;22.60;68.00
66568;DHT22;53422;49.296;6.900;2023-06-19T03:03:25;22.70;68.30
66568;DHT22;53422;49.296;6.900;2023-06-19T03:05:51;22.60;68.50
66568;DHT22;53422;49.296;6.900;2023-06-19T03:08:16;22.60;69.30
66568;DHT22;53422;49.296;6.900;2023-06-19T03:10:42;22.60;69.00
66568;DHT22;53422;49.296;6.900;2023-06-19T03:13:08;22.60;69.00
66568;DHT22;53422;49.296;6.900;2023-06-19T03:15:33;22.60;70.50
66568;DHT22;53422;49.296;6.900;2023-06-19T03:18:08;22.60;69.00
66568;DHT22;53422;49.296;6.900;2023-06-19T03:20:36;22.60;68.80
66568;DHT22;53422;49.296;6.900;2023-06-19T03:23:04;22.60;69.50
66568;DHT22;53422;49.296;6.900;2023-06-19T03:25:30;22.60;70.00
66568;DHT22;53422;49.296;6.900;2023-06-19T03:28:01;22.60;69.10
66568;DHT22;53422;49.296;6.900;2023-06-19T03:30:30;22.60;69.50
66568;DHT22;53422;49.296;6.900;2023-06-19T03:32:56;22.60;69.50
66568;DHT22;53422;49.296;6.900;2023-06-19T03:35:24;22.60;69.60
66568;DHT22;53422;49.296;6.900;2023-06-19T03:37:49;22.60;69.30
66568;DHT22;53422;49.296;6.900;2023-06-19T03:40:15;22.60;70.20
66568;DHT22;53422;49.296;6.900;2023-06-19T03:42:41;22.50;70.50
66568;DHT22;53422;49.296;6.900;2023-06-19T03:45:07;22.60;71.10
66568;DHT22;53422;49.296;6.900;2023-06-19T03:47:33;22.50;69.60
66568;DHT22;53422;49.296;6.900;2023-06-19T03:49:58;22.50;69.90
66568;DHT22;53422;49.296;6.900;2023-06-19T03:52:24;22.50;70.20
66568;DHT22;53422;49.296;6.900;2023-06-19T03:54:49;22.50;70.70
66568;DHT22;53422;49.296;6.900;2023-06-19T03:57:15;22.50;72.30
66568;DHT22;53422;49.296;6.900;2023-06-19T03:59:41;22.50;74.30
66568;DHT22;53422;49.296;6.900;2023-06-19T04:02:09;22.40;73.10
66568;DHT22;53422;49.296;6.900;2023-06-19T04:04:34;22.40;72.80
66568;DHT22;53422;49.296;6.900;2023-06-19T04:07:00;22.40;71.10
66568;DHT22;53422;49.296;6.900;2023-06-19T04:09:26;22.50;71.10
66568;DHT22;53422;49.296;6.900;2023-06-19T04:11:51;22.40;71.80
66568;DHT22;53422;49.296;6.900;2023-06-19T04:14:17;22.40;71.70
66568;DHT22;53422;49.296;6.900;2023-06-19T04:16:42;22.40;72.90
66568;DHT22;53422;49.296;6.900;2023-06-19T04:19:10;22.40;79.30
66568;DHT22;53422;49.296;6.900;2023-06-19T04:21:36;22.40;76.40
66568;DHT22;53422;49.296;6.900;2023-06-19T04:24:02;22.40;74.80
66568;DHT22;53422;49.296;6.900;2023-06-19T04:26:33;22.40;76.20
66568;DHT22;53422;49.296;6.900;2023-06-19T04:28:58;22.30;81.50
66568;DHT22;53422;49.296;6.900;2023-06-19T04:31:26;22.30;75.80
66568;DHT22;53422;49.296;6.900;2023-06-19T04:33:52;22.30;72.90
66568;DHT22;53422;49.296;6.900;2023-06-19T04:36:20;22.40;72.00
66568;DHT22;53422;49.296;6.900;2023-06-19T04:38:46;22.40;74.60
66568;DHT22;53422;49.296;6.900;2023-06-19T04:41:11;22.40;71.30
66568;DHT22;53422;49.296;6.900;2023-06-19T04:43:37;22.40;71.00
66568;DHT22;53422;49.296;6.900;2023-06-19T04:46:02;22.40;71.50
66568;DHT22;53422;49.296;6.900;2023-06-19T04:48:29;22.40;71.60
66568;DHT22;53422;49.296;6.900;2023-06-19T04:50:55;22.40;71.60
66568;DHT22;53422;49.296;6.900;2023-06-19T04:53:21;22.40;73.20
66568;DHT22;53422;49.296;6.900;2023-06-19T04:55:47;22.40;71.40
66568;DHT22;53422;49.296;6.900;2023-06-19T04:58:12;22.40;71.50
66568;DHT22;53422;49.296;6.900;2023-06-19T05:00:38;22.40;71.60
66568;DHT22;53422;49.296;6.900;2023-06-19T05:03:03;22.40;71.30
66568;DHT22;53422;49.296;6.900;2023-06-19T05:05:29;22.40;71.50
66568;DHT22;53422;49.296;6.900;2023-06-19T05:07:55;22.40;73.00
66568;DHT22;53422;49.296;6.900;2023-06-19T05:10:20;22.40;75.60
66568;DHT22;53422;49.296;6.900;2023-06-19T05:12:46;22.40;73.80
66568;DHT22;53422;49.296;6.900;2023-06-19T05:15:12;22.50;73.20
66568;DHT22;53422;49.296;6.900;2023-06-19T05:17:37;22.50;72.90
66568;DHT22;53422;49.296;6.900;2023-06-19T05:20:05;22.60;74.90
66568;DHT22;53422;49.296;6.900;2023-06-19T05:22:32;22.60;74.20
66568;DHT22;53422;49.296;6.900;2023-06-19T05:25:00;22.70;74.10
66568;DHT22;53422;49.296;6.900;2023-06-19T05:27:25;22.70;72.70
66568;DHT22;53422;49.296;6.900;2023-06-19T05:29:51;22.70;78.30
66568;DHT22;53422;49.296;6.900;2023-06-19T05:32:16;22.80;84.60
66568;DHT22;53422;49.296;6.900;2023-06-19T05:34:42;22.80;86.60
66568;DHT22;53422;49.296;6.900;2023-06-19T05:37:07;22.80;84.90
66568;DHT22;53422;49.296;6.900;2023-06-19T05:39:36;22.80;81.20
66568;DHT22;53422;49.296;6.900;2023-06-19T05:42:01;22.80;79.40
66568;DHT22;53422;49.296;6.900;2023-06-19T05:44:27;22.90;85.00
66568;DHT22;53422;49.296;6.900;2023-06-19T05:46:53;22.90;80.50
66568;DHT22;53422;49.296;6.900;2023-06-19T05:49:18;23.00;80.00
66568;DHT22;53422;49.296;6.900;2023-06-19T05:51:47;23.00;79.80
66568;DHT22;53422;49.296;6.900;2023-06-19T05:54:15;23.00;80.40
66568;DHT22;53422;49.296;6.900;2023-06-19T05:56:43;23.00;81.80
66568;DHT22;53422;49.296;6.900;2023-06-19T05:59:08;23.00;81.30
66568;DHT22;53422;49.296;6.900;2023-06-19T06:01:34;23.00;81.30
66568;DHT22;53422;49.296;6.900;2023-06-19T06:04:00;23.00;84.00
66568;DHT22;53422;49.296;6.900;2023-06-19T06:06:27;23.00;86.30
66568;DHT22;53422;49.296;6.900;2023-06-19T06:08:56;23.00;82.90
66568;DHT22;53422;49.296;6.900;2023-06-19T06:11:22;23.10;83.40
66568;DHT22;53422;49.296;6.900;2023-06-19T06:13:47;23.20;80.00
66568;DHT22;53422;49.296;6.900;2023-06-19T06:16:16;23.20;79.50
66568;DHT22;53422;49.296;6.900;2023-06-19T06:18:41;23.10;84.20
66568;DHT22;53422;49.296;6.900;2023-06-19T06:21:07;23.10;85.40
66568;DHT22;53422;49.296;6.900;2023-06-19T06:23:35;23.10;87.50
66568;DHT22;53422;49.296;6.900;2023-06-19T06:26:01;23.10;87.40
66568;DHT22;53422;49.296;6.900;2023-06-19T06:28:28;23.10;85.60
66568;DHT22;53422;49.296;6.900;2023-06-19T06:30:57;23.20;82.20
66568;DHT22;53422;49.296;6.900;2023-06-19T06:33:23;23.30;85.30
66568;DHT22;53422;49.296;6.900;2023-06-19T06:35:49;23.40;81.00
66568;DHT22;53422;49.296;6.900;2023-06-19T06:38:15;23.40;83.40
66568;DHT22;53422;49.296;6.900;2023-06-19T06:40:40;23.40;80.10
66568;DHT22;53422;49.296;6.900;2023-06-19T06:43:08;23.50;78.60
66568;DHT22;53422;49.296;6.900;2023-06-19T06:45:34;23.60;77.30
66568;DHT22;53422;49.296;6.900;2023-06-19T06:47:59;23.60;82.40
66568;DHT22;53422;49.296;6.900;2023-06-19T06:50:28;23.60;79.20
66568;DHT22;53422;49.296;6.900;2023-06-19T06:52:53;23.60;79.20
66568;DHT22;53422;49.296;6.900;2023-06-19T06:55:19;23.60;78.00
66568;DHT22;53422;49.296;6.900;2023-06-19T06:57:44;23.60;80.80
66568;DHT22;53422;49.296;6.900;2023-06-19T07:00:10;23.70;79.10
66568;DHT22;53422;49.296;6.900;2023-06-19T07:02:38;23.70;78.20
66568;DHT22;53422;49.296;6.900;2023-06-19T07:05:07;23.80;77.40
66568;DHT22;53422;49.296;6.900;2023-06-19T07:07:38;23.90;78.60
66568;DHT22;53422;49.296;6.900;2023-06-19T07:10:04;23.90;78.10
66568;DHT22;53422;49.296;6.900;2023-06-19T07:12:29;24.00;76.20
66568;DHT22;53422;49.296;6.900;2023-06-19T07:14:55;24.10;78.60
66568;DHT22;53422;49.296;6.900;2023-06-19T07:17:21;24.10;77.10
66568;DHT22;53422;49.296;6.900;2023-06-19T07:19:47;24.10;77.30
66568;DHT22;53422;49.296;6.900;2023-06-19T07:22:15;24.20;75.30
66568;DHT22;53422;49.296;6.900;2023-06-19T07:24:41;24.20;77.70
66568;DHT22;53422;49.296;6.900;2023-06-19T07:27:07;24.30;77.00
66568;DHT22;53422;49.296;6.900;2023-06-19T07:29:32;24.30;73.30
66568;DHT22;53422;49.296;6.900;2023-06-19T07:32:01;24.40;75.60
66568;DHT22;53422;49.296;6.900;2023-06-19T07:34:31;24.40;77.90
66568;DHT22;53422;49.296;6.900;2023-06-19T07:36:56;24.50;79.70
66568;DHT22;53422;49.296;6.900;2023-06-19T07:39:22;24.50;76.20
66568;DHT22;53422;49.296;6.900;2023-06-19T07:41:47;24.50;76.60
66568;DHT22;53422;49.296;6.900;2023-06-19T07:44:13;24.60;75.80
66568;DHT22;53422;49.296;6.900;2023-06-19T07:46:39;24.70;75.70
66568;DHT22;53422;49.296;6.900;2023-06-19T07:49:04;24.70;75.20
66568;DHT22;53422;49.296;6.900;2023-06-19T07:51:30;24.70;75.80
66568;DHT22;53422;49.296;6.900;2023-06-19T07:53:55;24.80;73.80
66568;DHT22;53422;49.296;6.900;2023-06-19T07:56:21;24.80;72.90
66568;DHT22;53422;49.296;6.900;2023-06-19T07:58:47;24.90;74.30
66568;DHT22;53422;49.296;6.900;2023-06-19T08:01:12;24.90;72.80
66568;DHT22;53422;49.296;6.900;2023-06-19T08:03:38;25.00;72.60
66568;DHT22;53422;49.296;6.900;2023-06-19T08:06:04;25.10;72.50
66568;DHT22;53422;49.296;6.900;2023-06-19T08:08:29;25.10;71.90
66568;DHT22;53422;49.296;6.900;2023-06-19T08:10:55;25.20;71.70
66568;DHT22;53422;49.296;6.900;2023-06-19T08:13:20;25.20;70.40
66568;DHT22;53422;49.296;6.900;2023-06-19T08:15:46;25.30;69.30
66568;DHT22;53422;49.296;6.900;2023-06-19T08:18:11;25.20;69.50
66568;DHT22;53422;49.296;6.900;2023-06-19T08:20:37;25.30;72.40
66568;DHT22;53422;49.296;6.900;2023-06-19T08:23:03;25.40;70.10
66568;DHT22;53422;49.296;6.900;2023-06-19T08:25:28;25.50;71.20
66568;DHT22;53422;49.296;6.900;2023-06-19T08:27:57;25.50;67.80
66568;DHT22;53422;49.296;6.900;2023-06-19T08:30:22;25.60;70.60
66568;DHT22;53422;49.296;6.900;2023-06-19T08:32:48;25.70;69.50
66568;DHT22;53422;49.296;6.900;2023-06-19T08:35:14;25.70;66.70
66568;DHT22;53422;49.296;6.900;2023-06-19T08:37:41;25.80;68.40
66568;DHT22;53422;49.296;6.900;2023-06-19T08:40:07;25.90;67.50
66568;DHT22;53422;49.296;6.900;2023-06-19T08:42:35;26.00;68.10
66568;DHT22;53422;49.296;6.900;2023-06-19T08:45:01;26.10;65.50
66568;DHT22;53422;49.296;6.900;2023-06-19T08:47:31;26.10;66.20
66568;DHT22;53422;49.296;6.900;2023-06-19T08:49:58;26.00;64.70
66568;DHT22;53422;49.296;6.900;2023-06-19T08:52:24;26.00;65.60
66568;DHT22;53422;49.296;6.900;2023-06-19T08:54:49;26.10;68.20
66568;DHT22;53422;49.296;6.900;2023-06-19T08:57:15;26.20;66.60
66568;DHT22;53422;49.296;6.900;2023-06-19T08:59:48;26.30;66.30
66568;DHT22;53422;49.296;6.900;2023-06-19T09:02:14;26.40;64.80
66568;DHT22;53422;49.296;6.900;2023-06-19T09:04:40;26.50;64.60
66568;DHT22;53422;49.296;6.900;2023-06-19T09:07:08;26.50;63.90
66568;DHT22;53422;49.296;6.900;2023-06-19T09:09:34;26.50;63.80
66568;DHT22;53422;49.296;6.900;2023-06-19T09:12:01;26.60;64.40
66568;DHT22;53422;49.296;6.900;2023-06-19T09:14:53;26.60;63.20
66568;DHT22;53422;49.296;6.900;2023-06-19T09:17:20;26.60;63.20
66568;DHT22;53422;49.296;6.900;2023-06-19T09:19:50;26.60;63.10
66568;DHT22;53422;49.296;6.900;2023-06-19T09:22:17;26.60;62.30
66568;DHT22;53422;49.296;6.900;2023-06-19T09:24:47;26.70;62.60
66568;DHT22;53422;49.296;6.900;2023-06-19T09:27:13;26.70;62.60
66568;DHT22;53422;49.296;6.900;2023-06-19T09:29:41;26.70;62.10
66568;DHT22;53422;49.296;6.900;2023-06-19T09:32:24;26.80;62.00
66568;DHT22;53422;49.296;6.900;2023-06-19T09:34:51;26.80;61.50
66568;DHT22;53422;49.296;6.900;2023-06-19T09:37:25;26.90;61.30
66568;DHT22;53422;49.296;6.900;2023-06-19T09:39:55;26.90;61.50
66568;DHT22;53422;49.296;6.900;2023-06-19T09:42:32;26.90;61.30
66568;DHT22;53422;49.296;6.900;2023-06-19T09:45:00;27.00;61.40
66568;DHT22;53422;49.296;6.900;2023-06-19T09:47:31;27.00;62.20
66568;DHT22;53422;49.296;6.900;2023-06-19T09:50:01;27.20;62.20
66568;DHT22;53422;49.296;6.900;2023-06-19T09:52:28;27.20;60.70
66568;DHT22;53422;49.296;6.900;2023-06-19T09:54:55;27.40;59.20
66568;DHT22;53422;49.296;6.900;2023-06-19T09:57:21;27.50;59.20
66568;DHT22;53422;49.296;6.900;2023-06-19T09:59:55;27.50;58.60
66568;DHT22;53422;49.296;6.900;2023-06-19T10:02:25;27.70;58.20
66568;DHT22;53422;49.296;6.900;2023-06-19T10:04:55;27.80;57.90
66568;DHT22;53422;49.296;6.900;2023-06-19T10:07:23;27.70;58.40
66568;DHT22;53422;49.296;6.900;2023-06-19T10:12:40;27.90;58.10
66568;DHT22;53422;49.296;6.900;2023-06-19T10:15:24;28.20;56.10
66568;DHT22;53422;49.296;6.900;2023-06-19T10:17:59;28.20;55.70
66568;DHT22;53422;49.296;6.900;2023-06-19T10:22:58;28.20;54.50
66568;DHT22;53422;49.296;6.900;2023-06-19T10:25:35;28.30;54.10
66568;DHT22;53422;49.296;6.900;2023-06-19T10:28:01;28.20;54.10
66568;DHT22;53422;49.296;6.900;2023-06-19T10:30:28;28.40;54.70
66568;DHT22;53422;49.296;6.900;2023-06-19T10:32:55;28.50;54.00
66568;DHT22;53422;49.296;6.900;2023-06-19T10:35:20;28.50;53.70
66568;DHT22;53422;49.296;6.900;2023-06-19T10:37:50;28.60;53.30
66568;DHT22;53422;49.296;6.900;2023-06-19T10:40:16;28.70;53.30
66568;DHT22;53422;49.296;6.900;2023-06-19T10:42:43;28.70;53.70
66568;DHT22;53422;49.296;6.900;2023-06-19T10:45:13;28.90;52.90
66568;DHT22;53422;49.296;6.900;2023-06-19T10:47:41;29.10;52.40
66568;DHT22;53422;49.296;6.900;2023-06-19T10:50:13;29.20;52.70
66568;DHT22;53422;49.296;6.900;2023-06-19T10:52:41;29.30;51.60
66568;DHT22;53422;49.296;6.900;2023-06-19T10:55:07;29.50;51.00
66568;DHT22;53422;49.296;6.900;2023-06-19T10:57:33;29.60;49.00
66568;DHT22;53422;49.296;6.900;2023-06-19T10:59:59;29.60;49.50
66568;DHT22;53422;49.296;6.900;2023-06-19T11:02:27;29.60;48.60
66568;DHT22;53422;49.296;6.900;2023-06-19T11:04:56;29.50;48.80
66568;DHT22;53422;49.296;6.900;2023-06-19T11:07:22;29.70;48.70
66568;DHT22;53422;49.296;6.900;2023-06-19T11:09:51;30.00;47.70
66568;DHT22;53422;49.296;6.900;2023-06-19T11:12:20;30.30;47.60
66568;DHT22;53422;49.296;6.900;2023-06-19T11:14:48;30.40;48.10
66568;DHT22;53422;49.296;6.900;2023-06-19T11:17:13;30.40;48.50
66568;DHT22;53422;49.296;6.900;2023-06-19T11:19:39;30.50;47.90
66568;DHT22;53422;49.296;6.900;2023-06-19T11:22:07;30.50;47.30
66568;DHT22;53422;49.296;6.900;2023-06-19T11:24:36;30.60;47.20
66568;DHT22;53422;49.296;6.900;2023-06-19T11:27:03;30.80;47.40
66568;DHT22;53422;49.296;6.900;2023-06-19T11:29:33;30.80;47.00
66568;DHT22;53422;49.296;6.900;2023-06-19T11:32:16;30.70;46.90
66568;DHT22;53422;49.296;6.900;2023-06-19T11:34:43;30.90;46.50
66568;DHT22;53422;49.296;6.900;2023-06-19T11:37:16;30.90;45.70
66568;DHT22;53422;49.296;6.900;2023-06-19T11:39:47;30.90;46.20
66568;DHT22;53422;49.296;6.900;2023-06-19T11:42:14;30.70;45.90
66568;DHT22;53422;49.296;6.900;2023-06-19T11:44:56;30.70;45.70
66568;DHT22;53422;49.296;6.900;2023-06-19T11:47:25;30.70;45.80
66568;DHT22;53422;49.296;6.900;2023-06-19T11:49:51;30.90;45.80
66568;DHT22;53422;49.296;6.900;2023-06-19T11:52:19;31.00;45.40
66568;DHT22;53422;49.296;6.900;2023-06-19T11:54:44;31.10;45.60
66568;DHT22;53422;49.296;6.900;2023-06-19T11:57:12;31.10;45.50
66568;DHT22;53422;49.296;6.900;2023-06-19T11:59:43;30.90;45.20
66568;DHT22;53422;49.296;6.900;2023-06-19T12:02:09;31.10;44.50
66568;DHT22;53422;49.296;6.900;2023-06-19T12:04:35;31.10;45.30
66568;DHT22;53422;49.296;6.900;2023-06-19T12:07:04;30.80;45.40
66568;DHT22;53422;49.296;6.900;2023-06-19T12:09:30;30.80;45.60
66568;DHT22;53422;49.296;6.900;2023-06-19T12:11:57;30.90;45.70
66568;DHT22;53422;49.296;6.900;2023-06-19T12:14:23;31.00;45.60
66568;DHT22;53422;49.296;6.900;2023-06-19T12:16:50;31.00;44.90
66568;DHT22;53422;49.296;6.900;2023-06-19T12:19:16;30.90;45.50
66568;DHT22;53422;49.296;6.900;2023-06-19T12:21:41;30.90;44.80
66568;DHT22;53422;49.296;6.900;2023-06-19T12:24:07;30.90;45.60
66568;DHT22;53422;49.296;6.900;2023-06-19T12:26:34;30.70;45.70
66568;DHT22;53422;49.296;6.900;2023-06-19T12:29:02;30.60;45.50
66568;DHT22;53422;49.296;6.900;2023-06-19T12:31:29;30.50;45.60
66568;DHT22;53422;49.296;6.900;2023-06-19T12:33:54;30.50;46.10
66568;DHT22;53422;49.296;6.900;2023-06-19T12:36:20;30.40;46.30
66568;DHT22;53422;49.296;6.900;2023-06-19T12:38:46;30.60;46.30
66568;DHT22;53422;49.296;6.900;2023-06-19T12:41:13;30.60;46.60
66568;DHT22;53422;49.296;6.900;2023-06-19T12:43:39;30.60;46.50
66568;DHT22;53422;49.296;6.900;2023-06-19T12:46:04;30.60;46.60
66568;DHT22;53422;49.296;6.900;2023-06-19T12:48:30;30.50;46.70
66568;DHT22;53422;49.296;6.900;2023-06-19T12:50:55;30.50;46.30
66568;DHT22;53422;49.296;6.900;2023-06-19T12:53:21;30.60;45.90
66568;DHT22;53422;49.296;6.900;2023-06-19T12:56:00;30.70;45.70
66568;DHT22;53422;49.296;6.900;2023-06-19T12:58:29;30.60;45.30
66568;DHT22;53422;49.296;6.900;2023-06-19T13:00:54;30.70;45.80
66568;DHT22;53422;49.296;6.900;2023-06-19T13:03:23;30.70;45.90
66568;DHT22;53422;49.296;6.900;2023-06-19T13:05:49;30.60;45.10
66568;DHT22;53422;49.296;6.900;2023-06-19T13:08:15;30.70;45.10
66568;DHT22;53422;49.296;6.900;2023-06-19T13:10:41;30.70;45.40
66568;DHT22;53422;49.296;6.900;2023-06-19T13:13:07;30.70;45.60
66568;DHT22;53422;49.296;6.900;2023-06-19T13:15:32;30.70;45.00
66568;DHT22;53422;49.296;6.900;2023-06-19T13:18:03;30.70;45.30
66568;DHT22;53422;49.296;6.900;2023-06-19T13:20:29;30.70;45.10
66568;DHT22;53422;49.296;6.900;2023-06-19T13:22:55;30.70;45.50
66568;DHT22;53422;49.296;6.900;2023-06-19T13:25:20;30.60;45.40
66568;DHT22;53422;49.296;6.900;2023-06-19T13:27:46;30.70;46.30
66568;DHT22;53422;49.296;6.900;2023-06-19T13:30:12;30.60;46.00
66568;DHT22;53422;49.296;6.900;2023-06-19T13:32:41;30.40;46.70
66568;DHT22;53422;49.296;6.900;2023-06-19T13:35:07;30.40;46.80
66568;DHT22;53422;49.296;6.900;2023-06-19T13:37:37;30.30;47.00
66568;DHT22;53422;49.296;6.900;2023-06-19T13:40:04;30.30;47.00
66568;DHT22;53422;49.296;6.900;2023-06-19T13:42:30;30.30;47.30
66568;DHT22;53422;49.296;6.900;2023-06-19T13:44:57;30.30;47.60
66568;DHT22;53422;49.296;6.900;2023-06-19T13:47:22;30.20;47.50
66568;DHT22;53422;49.296;6.900;2023-06-19T13:49:56;30.20;47.80
66568;DHT22;53422;49.296;6.900;2023-06-19T13:52:22;30.20;47.90
66568;DHT22;53422;49.296;6.900;2023-06-19T13:54:48;30.20;47.90
66568;DHT22;53422;49.296;6.900;2023-06-19T13:57:13;30.10;48.40
66568;DHT22;53422;49.296;6.900;2023-06-19T13:59:39;30.20;48.70
66568;DHT22;53422;49.296;6.900;2023-06-19T14:02:05;30.10;48.30
66568;DHT22;53422;49.296;6.900;2023-06-19T14:04:30;30.10;48.50
66568;DHT22;53422;49.296;6.900;2023-06-19T14:06:57;30.00;47.80
66568;DHT22;53422;49.296;6.900;2023-06-19T14:09:22;30.00;48.30
66568;DHT22;53422;49.296;6.900;2023-06-19T14:11:48;30.00;48.30
66568;DHT22;53422;49.296;6.900;2023-06-19T14:14:14;30.10;48.30
66568;DHT22;53422;49.296;6.900;2023-06-19T14:16:42;30.00;48.50
66568;DHT22;53422;49.296;6.900;2023-06-19T14:19:07;30.10;48.60
66568;DHT22;53422;49.296;6.900;2023-06-19T14:21:33;30.10;48.70
66568;DHT22;53422;49.296;6.900;2023-06-19T14:23:58;30.00;49.00
66568;DHT22;53422;49.296;6.900;2023-06-19T14:26:27;30.00;48.70
66568;DHT22;53422;49.296;6.900;2023-06-19T14:28:53;29.90;48.40
66568;DHT22;53422;49.296;6.900;2023-06-19T14:31:25;29.90;48.50
66568;DHT22;53422;49.296;6.900;2023-06-19T14:33:50;29.90;48.50
66568;DHT22;53422;49.296;6.900;2023-06-19T14:36:16;29.90;48.80
66568;DHT22;53422;49.296;6.900;2023-06-19T14:38:41;29.90;48.70
66568;DHT22;53422;49.296;6.900;2023-06-19T14:41:07;29.80;49.10
66568;DHT22;53422;49.296;6.900;2023-06-19T14:43:33;29.80;49.50
66568;DHT22;53422;49.296;6.900;2023-06-19T14:46:01;29.80;49.70
66568;DHT22;53422;49.296;6.900;2023-06-19T14:48:26;29.80;49.30
66568;DHT22;53422;49.296;6.900;2023-06-19T14:50:55;29.90;49.20
66568;DHT22;53422;49.296;6.900;2023-06-19T14:53:21;29.90;48.90
66568;DHT22;53422;49.296;6.900;2023-06-19T14:55:46;30.00;48.80
66568;DHT22;53422;49.296;6.900;2023-06-19T14:58:16;30.00;49.30
66568;DHT22;53422;49.296;6.900;2023-06-19T15:00:42;29.90;49.10
66568;DHT22;53422;49.296;6.900;2023-06-19T15:03:08;29.80;49.10
66568;DHT22;53422;49.296;6.900;2023-06-19T15:05:33;29.60;50.10
66568;DHT22;53422;49.296;6.900;2023-06-19T15:07:59;29.60;49.40
66568;DHT22;53422;49.296;6.900;2023-06-19T15:10:27;29.60;49.90
66568;DHT22;53422;49.296;6.900;2023-06-19T15:12:52;29.50;49.90
66568;DHT22;53422;49.296;6.900;2023-06-19T15:15:18;29.50;49.80
66568;DHT22;53422;49.296;6.900;2023-06-19T15:17:44;29.50;50.70
66568;DHT22;53422;49.296;6.900;2023-06-19T15:20:09;29.50;50.30
66568;DHT22;53422;49.296;6.900;2023-06-19T15:22:35;29.50;50.20
66568;DHT22;53422;49.296;6.900;2023-06-19T15:25:03;29.60;49.60
66568;DHT22;53422;49.296;6.900;2023-06-19T15:27:29;29.80;49.50
66568;DHT22;53422;49.296;6.900;2023-06-19T15:29:54;29.80;49.10
66568;DHT22;53422;49.296;6.900;2023-06-19T15:32:20;29.80;49.20
66568;DHT22;53422;49.296;6.900;2023-06-19T15:34:45;29.80;49.40
66568;DHT22;53422;49.296;6.900;2023-06-19T15:37:11;29.80;49.50